Winfield, Kansas
Current Conditions -  °F | °C
As of 1:54 PM on Sunday 21 Dec 2014 (Local Time) from KWLD Reporting Station
Overcast Overcast  
Wind Chill: 39°   Ceiling: 1200
Heat Index: 46°   Visibility: 8mi
Dew Point: 42°   Wind: 16mph
Humidity: 86%   Direction: 160°SSE
Pressure: 29.81"   Gusts: NA
Location:  37.24°N, 97°W
Report Text: KWLD 211954Z AUTO 16014KT 8SM OVC012 08/06 A2981 RMK AO2 SLP098 T00780056
Loading
Personal Weather Stations






























Interactive Weather Map New forecast layout! Learn more

10-Day Weather Forecast

Advertisements
Track Severe Weather on mobile